| time (UTC) | temp F | wind direction | speed knots | gust knots | rain 1hr in | rain 24hr in | rain mn in | humidity % | barometer mb |
| 20260507143022 | 53 | 286 | 0.0 | 0.0 | 0.00 | 0.24 | 0.00 | 69 | 1012.0 |
| 20260507141515 | 52 | 293 | 0.0 | 0.0 | 0.00 | 0.24 | 0.00 | 72 | 1011.9 |
| 20260507140013 | 52 | 303 | 0.0 | 4.3 | 0.00 | 0.24 | 0.00 | 77 | 1012.1 |
| 20260507134513 | 51 | 38 | 0.0 | 2.6 | 0.00 | 0.24 | 0.00 | 73 | 1012.2 |
| 20260507133012 | 52 | 61 | 5.2 | 10.4 | 0.00 | 0.24 | 0.00 | 72 | 1012.2 |
| 20260507131517 | 52 | 327 | 0.0 | 0.0 | 0.00 | 0.24 | 0.00 | 72 | 1012.3 |
| 20260507130012 | 51 | 342 | 0.0 | 0.0 | 0.00 | 0.24 | 0.00 | 78 | 1012.4 |
| 20260507124503 | 49 | 13 | 0.0 | 0.0 | 0.00 | 0.24 | 0.00 | 78 | 1012.3 |
| 20260507123100 | 49 | 330 | 0.0 | 0.0 | 0.00 | 0.24 | 0.00 | 80 | 1012.1 |
| 20260507121558 | 47 | 360 | 0.0 | 0.0 | 0.00 | 0.24 | 0.00 | 83 | 1012.5 |
| 20260507120057 | 47 | 14 | 0.0 | 0.0 | 0.00 | 0.24 | 0.00 | 84 | 1012.6 |
| 20260507114558 | 46 | 39 | 0.0 | 4.3 | 0.00 | 0.24 | 0.00 | 87 | 1012.5 |
| 20260507113059 | 45 | 53 | 0.9 | 5.2 | 0.00 | 0.24 | 0.00 | 90 | 1012.2 |
| 20260507111554 | 44 | 12 | 0.0 | 3.5 | 0.00 | 0.24 | 0.00 | 91 | 1012.3 |
| 20260507110053 | 43 | 330 | 0.9 | 4.3 | 0.00 | 0.24 | 0.00 | 92 | 1012.2 |
| 20260507104552 | 43 | 26 | 0.0 | 3.5 | 0.00 | 0.24 | 0.00 | 91 | 1011.7 |
| 20260507103049 | 44 | 348 | 0.0 | 4.3 | 0.00 | 0.24 | 0.00 | 90 | 1011.8 |
| 20260507101554 | 44 | 13 | 0.0 | 3.5 | 0.00 | 0.24 | 0.00 | 90 | 1011.9 |
| 20260507100049 | 44 | 36 | 1.7 | 7.0 | 0.00 | 0.24 | 0.00 | 90 | 1011.4 |
| 20260507094548 | 44 | 340 | 2.6 | 8.7 | 0.00 | 0.24 | 0.00 | 90 | 1011.5 |
| 20260507093052 | 44 | 40 | 2.6 | 4.3 | 0.00 | 0.24 | 0.00 | 91 | 1011.9 |
| 20260507091545 | 44 | 313 | 0.0 | 4.3 | 0.00 | 0.24 | 0.00 | 91 | 1011.9 |
| 20260507090044 | 44 | 287 | 0.0 | 5.2 | 0.00 | 0.24 | 0.00 | 90 | 1012.2 |
| 20260507084546 | 45 | 307 | 0.9 | 6.1 | 0.00 | 0.24 | 0.00 | 90 | 1011.5 |
| 20260507083040 | 45 | 331 | 0.0 | 7.8 | 0.00 | 0.24 | 0.00 | 89 | 1011.3 |
| 20260507081538 | 45 | 348 | 1.7 | 7.0 | 0.00 | 0.24 | 0.00 | 90 | 1011.6 |
| 20260507080040 | 45 | 332 | 1.7 | 7.0 | 0.00 | 0.24 | 0.00 | 90 | 1011.1 |
| 20260507074536 | 45 | 300 | 1.7 | 7.8 | 0.00 | 0.24 | 0.00 | 90 | 1011.6 |
| 20260507073033 | 45 | 259 | 0.9 | 10.4 | 0.00 | 0.24 | 0.00 | 90 | 1011.0 |
| 20260507071558 | 45 | 32 | 2.6 | 7.0 | 0.00 | 0.24 | 0.00 | 90 | 1010.9 |
| 20260507070032 | 46 | 334 | 1.7 | 10.4 | 0.00 | 0.24 | 0.00 | 90 | 1010.9 |
| 20260507064530 | 46 | 44 | 1.7 | 10.4 | 0.00 | 0.24 | 0.00 | 91 | 1010.8 |
| 20260507063025 | 46 | 36 | 4.3 | 13.0 | 0.00 | 0.24 | 0.00 | 91 | 1010.9 |
| 20260507061525 | 46 | 327 | 3.5 | 9.6 | 0.00 | 0.24 | 0.00 | 92 | 1011.1 |
| 20260507060023 | 46 | 335 | 3.5 | 9.6 | 0.00 | 0.24 | 0.00 | 92 | 1010.7 |
| 20260507054521 | 46 | 298 | 1.7 | 7.0 | 0.00 | 0.24 | 0.00 | 92 | 1011.1 |
| 20260507053021 | 46 | 281 | 1.7 | 10.4 | 0.00 | 0.24 | 0.00 | 93 | 1011.2 |
| 20260507051528 | 46 | 298 | 4.3 | 8.7 | 0.00 | 0.24 | 0.00 | 93 | 1011.0 |
| 20260507050019 | 46 | 259 | 1.7 | 5.2 | 0.00 | 0.24 | 0.00 | 93 | 1011.0 |
| 20260507044515 | 46 | 36 | 0.9 | 10.4 | 0.00 | 0.24 | 0.00 | 93 | 1010.8 |
| 20260507043014 | 47 | 22 | 2.6 | 10.4 | 0.00 | 0.24 | 0.00 | 93 | 1010.7 |
| 20260507041509 | 48 | 360 | 3.5 | 10.4 | 0.00 | 0.24 | 0.00 | 94 | 1011.1 |
| 20260507040006 | 48 | 360 | 3.5 | 9.6 | 0.01 | 0.24 | 0.24 | 94 | 1010.9 |
| 20260507034507 | 49 | 13 | 2.6 | 9.6 | 0.05 | 0.24 | 0.24 | 94 | 1010.6 |
| 20260507033010 | 49 | 360 | 2.6 | 8.7 | 0.06 | 0.24 | 0.24 | 94 | 1010.6 |
| 20260507031502 | 49 | 34 | 5.2 | 13.0 | 0.08 | 0.24 | 0.24 | 94 | 1010.5 |
| 20260507030059 | 50 | 360 | 3.5 | 12.2 | 0.07 | 0.23 | 0.23 | 94 | 1010.6 |
| 20260507024603 | 51 | 360 | 1.7 | 11.3 | 0.04 | 0.19 | 0.19 | 94 | 1010.6 |
| 20260507023051 | 53 | 360 | 6.1 | 13.9 | 0.06 | 0.18 | 0.18 | 94 | 1010.1 |
| 20260507021547 | 54 | 346 | 2.6 | 12.2 | 0.08 | 0.16 | 0.16 | 95 | 1010.0 |
| 20260507020045 | 55 | 30 | 0.0 | 3.5 | 0.08 | 0.16 | 0.16 | 95 | 1009.8 |
| 20260507014550 | 56 | 13 | 1.7 | 11.3 | 0.07 | 0.15 | 0.15 | 95 | 1009.5 |
| 20260507013041 | 58 | 313 | 0.9 | 6.1 | 0.04 | 0.12 | 0.12 | 96 | 1009.3 |
| 20260507011541 | 58 | 242 | 2.6 | 6.1 | 0.00 | 0.08 | 0.08 | 96 | 1009.1 |
| 20260507010039 | 57 | 205 | 2.6 | 6.1 | 0.00 | 0.08 | 0.08 | 96 | 1009.1 |
| 20260507004540 | 57 | 198 | 3.5 | 7.0 | 0.00 | 0.08 | 0.08 | 96 | 1008.9 |
| 20260507003035 | 57 | 208 | 3.5 | 7.8 | 0.00 | 0.08 | 0.08 | 95 | 1008.8 |
| 20260507001546 | 57 | 226 | 0.0 | 0.0 | 0.00 | 0.08 | 0.08 | 95 | 1008.7 |
| 20260507000036 | 58 | 207 | 0.0 | 0.0 | 0.00 | 0.08 | 0.08 | 95 | 1008.7 |
| 20260506234534 | 58 | 176 | 0.0 | 0.0 | 0.00 | 0.08 | 0.08 | 95 | 1008.4 |
| 20260506233034 | 58 | 213 | 0.0 | 0.0 | 0.00 | 0.08 | 0.08 | 95 | 1008.4 |
| 20260506231531 | 58 | 203 | 0.0 | 0.0 | 0.00 | 0.08 | 0.08 | 95 | 1008.6 |
| 20260506230030 | 58 | 223 | 0.0 | 0.0 | 0.00 | 0.08 | 0.08 | 95 | 1008.5 |
| 20260506224530 | 58 | 252 | 0.0 | 0.0 | 0.00 | 0.08 | 0.08 | 95 | 1008.6 |
| 20260506223027 | 58 | 251 | 0.0 | 0.0 | 0.00 | 0.08 | 0.08 | 95 | 1008.7 |
| 20260506221526 | 58 | 182 | 0.0 | 0.0 | 0.00 | 0.08 | 0.08 | 95 | 1008.7 |
| 20260506220036 | 58 | 226 | 0.0 | 0.0 | 0.00 | 0.08 | 0.08 | 94 | 1008.8 |
| 20260506214527 | 58 | 199 | 0.0 | 0.0 | 0.01 | 0.08 | 0.08 | 94 | 1008.8 |
| 20260506213029 | 59 | 196 | 0.0 | 0.0 | 0.01 | 0.08 | 0.08 | 94 | 1008.7 |
| 20260506211522 | 59 | 192 | 0.0 | 0.0 | 0.02 | 0.08 | 0.08 | 94 | 1008.9 |
| 20260506210023 | 59 | 197 | 0.0 | 0.0 | 0.02 | 0.08 | 0.08 | 94 | 1008.9 |
| 20260506204520 | 59 | 193 | 0.0 | 0.0 | 0.02 | 0.07 | 0.07 | 93 | 1009.0 |
| 20260506203021 | 60 | 196 | 0.0 | 0.0 | 0.02 | 0.07 | 0.07 | 93 | 1009.0 |
| 20260506201517 | 60 | 209 | 0.0 | 0.0 | 0.01 | 0.06 | 0.06 | 93 | 1009.3 |
| 20260506200020 | 60 | 202 | 0.0 | 0.0 | 0.01 | 0.06 | 0.06 | 92 | 1009.3 |
| 20260506194515 | 60 | 213 | 0.0 | 0.0 | 0.01 | 0.05 | 0.05 | 91 | 1009.5 |
| 20260506193014 | 60 | 250 | 0.0 | 0.0 | 0.01 | 0.05 | 0.05 | 91 | 1009.8 |
| 20260506191514 | 60 | 213 | 0.0 | 0.0 | 0.01 | 0.05 | 0.05 | 91 | 1009.3 |
| 20260506190020 | 60 | 182 | 0.0 | 0.0 | 0.02 | 0.05 | 0.05 | 91 | 1009.4 |
| 20260506184516 | 60 | 183 | 0.0 | 0.0 | 0.03 | 0.04 | 0.04 | 91 | 1010.0 |
| 20260506183007 | 60 | 217 | 0.0 | 0.0 | 0.04 | 0.04 | 0.04 | 91 | 1010.2 |
| 20260506181506 | 60 | 303 | 0.0 | 0.0 | 0.03 | 0.03 | 0.03 | 90 | 1010.5 |
| 20260506180008 | 61 | 240 | 0.0 | 0.0 | 0.02 | 0.02 | 0.02 | 87 | 1010.7 |
| 20260506174505 | 62 | 269 | 0.0 | 0.0 | 0.01 | 0.01 | 0.01 | 84 | 1010.8 |
| 20260506173003 | 64 | 246 | 4.3 | 13.9 | 0.00 | 0.00 | 0.00 | 78 | 1010.8 |
| 20260506171502 | 66 | 221 | 0.0 | 0.0 | 0.00 | 0.00 | 0.00 | 71 | 1010.6 |
| 20260506170001 | 67 | 208 | 3.5 | 13.0 | 0.00 | 0.00 | 0.00 | 69 | 1010.3 |
| 20260506164601 | 67 | 257 | 6.1 | 15.6 | 0.00 | 0.00 | 0.00 | 69 | 1010.4 |
| 20260506163104 | 67 | 212 | 0.0 | 0.0 | 0.00 | 0.00 | 0.00 | 73 | 1010.7 |
| 20260506161558 | 67 | 207 | 0.0 | 0.0 | 0.00 | 0.00 | 0.00 | 72 | 1010.8 |
| 20260506160054 | 67 | 200 | 0.0 | 0.0 | 0.00 | 0.00 | 0.00 | 73 | 1011.2 |
| 20260506154551 | 66 | 203 | 0.0 | 0.0 | 0.00 | 0.00 | 0.00 | 73 | 1011.7 |
| 20260506153049 | 66 | 211 | 0.0 | 0.0 | 0.00 | 0.00 | 0.00 | 73 | 1011.7 |
| 20260506151549 | 66 | 184 | 0.0 | 0.0 | 0.00 | 0.00 | 0.00 | 73 | 1011.9 |
| 20260506150051 | 66 | 204 | 0.0 | 0.0 | 0.00 | 0.00 | 0.00 | 74 | 1012.0 |
| 20260506144600 | 65 | 205 | 0.0 | 11.3 | 0.00 | 0.00 | 0.00 | 75 | 1012.0 |